Weather reports worldwide

Advertisment
Glen Ogle, United Kingdom (3148): temperature & dewpoint: 25.09.2020 22:00:00 - 01.10.2020 22:00:00 (BST)Glen Ogle, United Kingdom (3148): wind speed & gusts: 25.09.2020 22:00:00 - 01.10.2020 22:00:00 (BST)Glen Ogle, United Kingdom (3148): wind direction: 25.09.2020 22:00:00 - 01.10.2020 22:00:00 (BST)
Date & Time tt [°C] td [°C] ff [km/h] ff [kn] fx [km/h] fx [kn] dd
01.10.2020 22:00:00 5,1 4,3 11 6 - - N
01.10.2020 21:00:00 5,3 4,6 8 4 - - N
01.10.2020 20:00:00 5,2 4,5 4 2 - - N
01.10.2020 19:00:00 5,9 4,7 4 2 - - NNE
01.10.2020 18:00:00 6,0 4,4 8 4 - - NNW
01.10.2020 17:00:00 6,4 3,3 9 5 - - NNW
01.10.2020 16:00:00 6,6 2,5 9 5 - - N
01.10.2020 15:00:00 6,6 0,8 5 3 - - WNW
01.10.2020 14:00:00 5,9 1,0 5 3 - - WNW
01.10.2020 13:00:00 5,4 0,7 9 5 - - NNW
01.10.2020 12:00:00 4,6 -0,8 8 4 - - WNW
01.10.2020 11:00:00 4,1 1,4 13 7 - - N
01.10.2020 10:00:00 4,0 3,9 15 8 - - N
01.10.2020 09:00:00 4,2 4,2 15 8 - - N
01.10.2020 08:00:00 4,3 4,3 13 7 - - NNE
01.10.2020 07:00:00 4,5 4,5 11 6 - - N
01.10.2020 06:00:00 4,7 4,7 8 4 - - NW
01.10.2020 05:00:00 4,8 4,8 16 9 - - NW
01.10.2020 04:00:00 5,2 5,2 18 10 - - NW
01.10.2020 03:00:00 5,4 5,4 13 7 - - NW
01.10.2020 02:00:00 5,6 5,6 13 7 - - NNW
01.10.2020 01:00:00 5,7 5,7 11 6 - - NNW
01.10.2020 00:00:00 5,9 5,9 9 5 - - NW
30.09.2020 23:00:00 6,2 6,2 15 8 - - NNW
30.09.2020 22:00:00 6,3 6,3 16 9 - - WNW
30.09.2020 21:00:00 6,6 6,6 22 12 - - WNW
30.09.2020 20:00:00 6,9 6,9 21 11 - - WNW
30.09.2020 19:00:00 7,2 7,2 24 13 - - W
30.09.2020 18:00:00 7,9 7,9 28 15 - - W
30.09.2020 17:00:00 8,9 8,2 11 6 - - W
30.09.2020 16:00:00 8,7 8,4 8 4 - - S
30.09.2020 15:00:00 8,4 8,4 21 11 - - SSE
30.09.2020 14:00:00 8,3 8,2 24 13 - - SSE
30.09.2020 13:00:00 7,9 7,9 35 19 54 29 SSE
30.09.2020 12:00:00 7,8 7,7 39 21 67 36 SSE
30.09.2020 11:00:00 7,7 7,7 41 22 61 33 SSE
30.09.2020 10:00:00 7,5 7,5 42 23 55 30 SSE
30.09.2020 09:00:00 7,1 7,1 42 23 55 30 SSE
30.09.2020 08:00:00 6,7 6,7 41 22 55 30 SSE
30.09.2020 07:00:00 6,6 6,6 42 23 63 34 SSE
30.09.2020 06:00:00 6,3 6,3 44 24 61 33 SSE
30.09.2020 05:00:00 6,3 6,2 42 23 59 32 SSE
30.09.2020 04:00:00 6,2 6,1 48 26 59 32 SSE
30.09.2020 03:00:00 5,5 5,5 34 18 48 26 SSE
30.09.2020 02:00:00 5,5 5,5 29 16 - - SSE
30.09.2020 01:00:00 5,7 5,5 35 19 52 28 SSE
30.09.2020 00:00:00 5,5 5,2 39 21 48 26 S
29.09.2020 23:00:00 5,5 5,0 28 15 - - SSE
29.09.2020 22:00:00 6,4 5,3 29 16 - - S
29.09.2020 21:00:00 6,6 5,1 24 13 - - SSE
29.09.2020 20:00:00 7,2 4,9 29 16 - - S
29.09.2020 19:00:00 7,6 4,3 28 15 - - S
29.09.2020 18:00:00 8,3 3,2 29 16 - - S
29.09.2020 17:00:00 8,3 4,9 28 15 - - SSE
29.09.2020 16:00:00 8,7 3,9 22 12 - - S
29.09.2020 15:00:00 8,3 4,3 28 15 - - S
29.09.2020 14:00:00 6,7 5,0 16 9 - - WSW
29.09.2020 13:00:00 7,8 4,2 16 9 - - S
29.09.2020 12:00:00 7,4 3,5 15 8 - - S
29.09.2020 11:00:00 7,8 3,0 5 3 - - SSW
29.09.2020 10:00:00 6,6 -5,0 4 2 - - NNW
29.09.2020 09:00:00 6,1 6,1 2 1 - - N
29.09.2020 08:00:00 5,4 5,2 4 2 - - SSW
29.09.2020 07:00:00 5,2 5,0 5 3 - - WNW
29.09.2020 06:00:00 5,8 5,6 9 5 - - W
29.09.2020 05:00:00 5,6 5,6 9 5 - - W
29.09.2020 04:00:00 5,4 5,4 16 9 - - WNW
29.09.2020 03:00:00 5,4 5,4 15 8 - - WNW
29.09.2020 02:00:00 5,7 5,7 16 9 - - W
29.09.2020 01:00:00 6,1 6,1 18 10 - - W
29.09.2020 00:00:00 6,1 6,0 18 10 - - W
28.09.2020 23:00:00 6,7 6,3 28 15 - - W
28.09.2020 22:00:00 7,0 6,1 21 11 - - W
28.09.2020 21:00:00 7,4 6,2 26 14 - - W
28.09.2020 20:00:00 7,7 6,2 29 16 - - W
28.09.2020 19:00:00 8,1 6,7 22 12 - - W
28.09.2020 18:00:00 9,0 5,5 28 15 - - W
28.09.2020 17:00:00 9,8 4,9 31 17 - - W
28.09.2020 16:00:00 10,5 6,0 31 17 - - W
28.09.2020 15:00:00 9,1 7,4 21 11 - - W
28.09.2020 14:00:00 8,4 8,1 15 8 - - W
28.09.2020 13:00:00 8,4 8,0 13 7 - - SSW
28.09.2020 12:00:00 8,1 8,1 16 9 - - S
28.09.2020 11:00:00 7,3 7,3 15 8 - - SSE
28.09.2020 10:00:00 7,2 7,2 26 14 - - S
28.09.2020 09:00:00 6,9 6,8 22 12 - - S
28.09.2020 08:00:00 6,1 5,5 9 5 - - SSW
28.09.2020 07:00:00 6,3 5,9 21 11 - - S
28.09.2020 06:00:00 6,4 5,2 15 8 - - S
28.09.2020 05:00:00 6,9 3,8 9 5 - - SSW
28.09.2020 04:00:00 5,8 4,0 13 7 - - SSE
28.09.2020 03:00:00 5,9 3,6 9 5 - - SSE
28.09.2020 02:00:00 5,6 4,0 13 7 - - S
28.09.2020 01:00:00 5,1 3,8 18 10 - - SE
28.09.2020 00:00:00 5,4 3,3 4 2 - - SSE
27.09.2020 23:00:00 5,9 1,9 4 2 - - SSE
27.09.2020 22:00:00 5,5 2,5 4 2 - - E
27.09.2020 21:00:00 5,7 2,1 5 3 - - ESE
27.09.2020 20:00:00 6,3 2,6 2 1 - - E
27.09.2020 19:00:00 6,3 3,1 4 2 - - WNW
27.09.2020 18:00:00 7,3 2,1 9 5 - - W
27.09.2020 17:00:00 8,2 0,7 8 4 - - WSW
27.09.2020 16:00:00 8,9 -0,9 9 5 - - S
27.09.2020 15:00:00 8,0 0,1 11 6 - - SSW
27.09.2020 14:00:00 7,8 -1,5 13 7 - - S
27.09.2020 13:00:00 7,6 -0,8 9 5 - - S
27.09.2020 12:00:00 6,8 -1,8 8 4 - - SSW
27.09.2020 11:00:00 5,8 -5,2 5 3 - - S
27.09.2020 10:00:00 5,6 -10,9 2 1 - - SSW
27.09.2020 09:00:00 4,6 -7,4 5 3 - - E
27.09.2020 08:00:00 3,1 -3,3 9 5 - - NNE
27.09.2020 07:00:00 4,0 -3,2 16 9 - - ENE
27.09.2020 06:00:00 3,1 -1,5 2 1 - - NE
27.09.2020 05:00:00 2,8 -0,5 9 5 - - NNE
27.09.2020 04:00:00 2,6 0,2 11 6 - - N
27.09.2020 03:00:00 3,1 -0,1 11 6 - - NNE
27.09.2020 02:00:00 3,2 0,1 16 9 - - N
27.09.2020 01:00:00 3,3 0,3 15 8 - - N
27.09.2020 00:00:00 3,8 0,1 11 6 - - NNE
26.09.2020 23:00:00 3,8 0,6 18 10 - - NE
26.09.2020 22:00:00 4,5 1,3 11 6 - - N
26.09.2020 21:00:00 5,1 1,2 18 10 - - NNE
26.09.2020 20:00:00 5,6 1,6 21 11 - - NNE
26.09.2020 19:00:00 6,4 0,8 24 13 - - N
26.09.2020 18:00:00 7,7 -0,1 16 9 - - NNE
26.09.2020 17:00:00 8,0 -0,3 28 15 46 25 N
26.09.2020 16:00:00 7,9 -0,8 26 14 46 25 N
26.09.2020 15:00:00 8,1 -1,7 18 10 55 30 N
26.09.2020 14:00:00 8,1 -0,5 24 13 55 30 N
26.09.2020 13:00:00 7,2 -2,3 22 12 50 27 N
26.09.2020 12:00:00 7,1 -0,1 22 12 59 32 NNW
26.09.2020 11:00:00 5,8 -0,6 42 23 67 36 NNE
26.09.2020 10:00:00 4,7 -0,5 35 19 65 35 NNW
26.09.2020 09:00:00 4,1 -0,9 31 17 59 32 N
26.09.2020 08:00:00 3,4 1,0 31 17 74 40 NNW
26.09.2020 07:00:00 3,2 1,4 57 31 68 37 NNW
26.09.2020 06:00:00 3,0 1,1 29 16 - - NNW
26.09.2020 05:00:00 3,1 1,1 18 10 - - NNW
26.09.2020 04:00:00 3,7 0,3 24 13 48 26 N
26.09.2020 03:00:00 3,6 0,6 41 22 63 34 NNW
26.09.2020 02:00:00 3,2 -0,1 46 25 59 32 N
26.09.2020 01:00:00 2,9 -0,8 34 18 50 27 NNW
26.09.2020 00:00:00 3,2 -1,0 44 24 54 29 NNW
25.09.2020 23:00:00 3,2 -0,9 44 24 63 34 N
25.09.2020 22:00:00 3,4 -0,9 44 24 55 30 NNW

tt = temperature
td = dewpoint
ff = wind speed
fx = gusts
dd = wind direction

Next stations